sensor_id;sensor_type;location;lat;lon;timestamp;temperature;humidity
65637;DHT22;52327;42.622;23.316;2023-06-22T00:01:50;18.89;63.62
65637;DHT22;52327;42.622;23.316;2023-06-22T00:04:16;18.87;64.17
65637;DHT22;52327;42.622;23.316;2023-06-22T00:06:41;18.46;65.02
65637;DHT22;52327;42.622;23.316;2023-06-22T00:09:07;17.98;66.36
65637;DHT22;52327;42.622;23.316;2023-06-22T00:11:33;17.92;66.18
65637;DHT22;52327;42.622;23.316;2023-06-22T00:14:02;17.88;66.49
65637;DHT22;52327;42.622;23.316;2023-06-22T00:16:28;17.79;67.13
65637;DHT22;52327;42.622;23.316;2023-06-22T00:18:53;17.74;67.57
65637;DHT22;52327;42.622;23.316;2023-06-22T00:21:19;17.77;66.86
65637;DHT22;52327;42.622;23.316;2023-06-22T00:23:46;17.97;67.14
65637;DHT22;52327;42.622;23.316;2023-06-22T00:26:13;18.25;65.80
65637;DHT22;52327;42.622;23.316;2023-06-22T00:28:38;18.50;65.37
65637;DHT22;52327;42.622;23.316;2023-06-22T00:31:04;18.60;65.76
65637;DHT22;52327;42.622;23.316;2023-06-22T00:33:29;18.61;65.55
65637;DHT22;52327;42.622;23.316;2023-06-22T00:35:55;18.49;63.70
65637;DHT22;52327;42.622;23.316;2023-06-22T00:38:20;18.48;64.61
65637;DHT22;52327;42.622;23.316;2023-06-22T00:40:46;18.52;64.24
65637;DHT22;52327;42.622;23.316;2023-06-22T00:43:11;18.49;64.09
65637;DHT22;52327;42.622;23.316;2023-06-22T00:45:38;18.63;62.82
65637;DHT22;52327;42.622;23.316;2023-06-22T00:48:03;18.84;62.37
65637;DHT22;52327;42.622;23.316;2023-06-22T00:50:31;18.81;62.97
65637;DHT22;52327;42.622;23.316;2023-06-22T00:53:07;18.91;61.83
65637;DHT22;52327;42.622;23.316;2023-06-22T00:55:43;19.10;60.98
65637;DHT22;52327;42.622;23.316;2023-06-22T00:58:11;19.17;61.76
65637;DHT22;52327;42.622;23.316;2023-06-22T01:00:38;19.12;62.34
65637;DHT22;52327;42.622;23.316;2023-06-22T01:03:04;19.06;62.39
65637;DHT22;52327;42.622;23.316;2023-06-22T01:05:34;18.94;62.09
65637;DHT22;52327;42.622;23.316;2023-06-22T01:11:10;19.01;62.97
65637;DHT22;52327;42.622;23.316;2023-06-22T01:16:30;18.57;64.21
65637;DHT22;52327;42.622;23.316;2023-06-22T01:19:00;18.73;63.88
65637;DHT22;52327;42.622;23.316;2023-06-22T01:21:28;18.70;64.25
65637;DHT22;52327;42.622;23.316;2023-06-22T01:24:11;18.56;65.39
65637;DHT22;52327;42.622;23.316;2023-06-22T01:29:33;17.99;66.37
65637;DHT22;52327;42.622;23.316;2023-06-22T01:32:00;17.91;66.87
65637;DHT22;52327;42.622;23.316;2023-06-22T01:34:29;17.82;67.70
65637;DHT22;52327;42.622;23.316;2023-06-22T01:36:56;18.15;66.04
65637;DHT22;52327;42.622;23.316;2023-06-22T01:39:23;18.48;65.55
65637;DHT22;52327;42.622;23.316;2023-06-22T01:41:49;18.57;65.75
65637;DHT22;52327;42.622;23.316;2023-06-22T01:44:15;17.99;67.10
65637;DHT22;52327;42.622;23.316;2023-06-22T01:46:41;17.43;69.86
65637;DHT22;52327;42.622;23.316;2023-06-22T01:49:07;17.12;71.45
65637;DHT22;52327;42.622;23.316;2023-06-22T01:51:33;17.13;71.88
65637;DHT22;52327;42.622;23.316;2023-06-22T01:53:59;17.05;72.22
65637;DHT22;52327;42.622;23.316;2023-06-22T01:56:26;17.03;72.00
65637;DHT22;52327;42.622;23.316;2023-06-22T02:01:46;17.23;71.58
65637;DHT22;52327;42.622;23.316;2023-06-22T02:04:21;17.33;70.77
65637;DHT22;52327;42.622;23.316;2023-06-22T02:06:51;17.30;70.00
65637;DHT22;52327;42.622;23.316;2023-06-22T02:09:20;17.28;69.51
65637;DHT22;52327;42.622;23.316;2023-06-22T02:11:48;17.10;70.87
65637;DHT22;52327;42.622;23.316;2023-06-22T02:14:17;17.16;70.87
65637;DHT22;52327;42.622;23.316;2023-06-22T02:16:43;17.23;71.60
65637;DHT22;52327;42.622;23.316;2023-06-22T02:19:09;17.37;71.45
65637;DHT22;52327;42.622;23.316;2023-06-22T02:21:34;17.50;71.01
65637;DHT22;52327;42.622;23.316;2023-06-22T02:24:00;17.48;71.23
65637;DHT22;52327;42.622;23.316;2023-06-22T02:26:26;17.60;71.11
65637;DHT22;52327;42.622;23.316;2023-06-22T02:28:52;17.38;71.50
65637;DHT22;52327;42.622;23.316;2023-06-22T02:31:18;17.19;72.03
65637;DHT22;52327;42.622;23.316;2023-06-22T02:33:43;17.22;71.95
65637;DHT22;52327;42.622;23.316;2023-06-22T02:36:09;17.33;72.49
65637;DHT22;52327;42.622;23.316;2023-06-22T02:38:40;17.26;73.06
65637;DHT22;52327;42.622;23.316;2023-06-22T02:41:14;17.07;73.58
65637;DHT22;52327;42.622;23.316;2023-06-22T02:43:44;17.00;74.38
65637;DHT22;52327;42.622;23.316;2023-06-22T02:46:10;17.37;73.05
65637;DHT22;52327;42.622;23.316;2023-06-22T02:48:37;17.30;72.37
65637;DHT22;52327;42.622;23.316;2023-06-22T02:51:02;17.34;72.71
65637;DHT22;52327;42.622;23.316;2023-06-22T02:53:28;17.60;71.90
65637;DHT22;52327;42.622;23.316;2023-06-22T02:55:53;17.48;71.13
65637;DHT22;52327;42.622;23.316;2023-06-22T02:58:18;17.51;71.24
65637;DHT22;52327;42.622;23.316;2023-06-22T03:00:44;17.60;71.83
65637;DHT22;52327;42.622;23.316;2023-06-22T03:03:09;17.77;72.29
65637;DHT22;52327;42.622;23.316;2023-06-22T03:05:35;17.84;72.10
65637;DHT22;52327;42.622;23.316;2023-06-22T03:08:00;17.82;72.99
65637;DHT22;52327;42.622;23.316;2023-06-22T03:10:26;17.85;72.83
65637;DHT22;52327;42.622;23.316;2023-06-22T03:12:51;18.01;71.73
65637;DHT22;52327;42.622;23.316;2023-06-22T03:15:17;18.05;71.78
65637;DHT22;52327;42.622;23.316;2023-06-22T03:17:42;18.04;72.52
65637;DHT22;52327;42.622;23.316;2023-06-22T03:20:09;17.71;72.81
65637;DHT22;52327;42.622;23.316;2023-06-22T03:22:40;17.97;72.37
65637;DHT22;52327;42.622;23.316;2023-06-22T03:25:07;18.04;71.73
65637;DHT22;52327;42.622;23.316;2023-06-22T03:27:39;18.39;71.40
65637;DHT22;52327;42.622;23.316;2023-06-22T03:30:06;18.40;71.67
65637;DHT22;52327;42.622;23.316;2023-06-22T03:32:32;18.60;71.12
65637;DHT22;52327;42.622;23.316;2023-06-22T03:34:58;18.66;71.04
65637;DHT22;52327;42.622;23.316;2023-06-22T03:37:27;18.50;71.57
65637;DHT22;52327;42.622;23.316;2023-06-22T03:39:53;18.61;71.69
65637;DHT22;52327;42.622;23.316;2023-06-22T03:42:18;18.67;71.89
65637;DHT22;52327;42.622;23.316;2023-06-22T03:44:44;18.77;70.72
65637;DHT22;52327;42.622;23.316;2023-06-22T03:47:09;18.84;70.84
65637;DHT22;52327;42.622;23.316;2023-06-22T03:49:35;18.83;71.63
65637;DHT22;52327;42.622;23.316;2023-06-22T03:52:02;18.96;71.29
65637;DHT22;52327;42.622;23.316;2023-06-22T03:54:31;18.93;71.35
65637;DHT22;52327;42.622;23.316;2023-06-22T03:56:58;18.93;70.85
65637;DHT22;52327;42.622;23.316;2023-06-22T03:59:23;18.83;70.96
65637;DHT22;52327;42.622;23.316;2023-06-22T04:01:49;18.77;71.17
65637;DHT22;52327;42.622;23.316;2023-06-22T04:04:16;18.80;71.31
65637;DHT22;52327;42.622;23.316;2023-06-22T04:06:42;18.76;71.26
65637;DHT22;52327;42.622;23.316;2023-06-22T04:09:07;18.83;71.32
65637;DHT22;52327;42.622;23.316;2023-06-22T04:11:33;18.87;71.28
65637;DHT22;52327;42.622;23.316;2023-06-22T04:13:58;19.01;71.53
65637;DHT22;52327;42.622;23.316;2023-06-22T04:16:24;19.11;71.31
65637;DHT22;52327;42.622;23.316;2023-06-22T04:18:49;19.14;70.75
65637;DHT22;52327;42.622;23.316;2023-06-22T04:21:15;19.18;71.22
65637;DHT22;52327;42.622;23.316;2023-06-22T04:23:40;19.27;71.21
65637;DHT22;52327;42.622;23.316;2023-06-22T04:26:06;19.41;70.81
65637;DHT22;52327;42.622;23.316;2023-06-22T04:28:31;19.49;70.31
65637;DHT22;52327;42.622;23.316;2023-06-22T04:31:01;19.63;69.94
65637;DHT22;52327;42.622;23.316;2023-06-22T04:33:28;19.76;69.77
65637;DHT22;52327;42.622;23.316;2023-06-22T04:35:55;19.86;69.80
65637;DHT22;52327;42.622;23.316;2023-06-22T04:38:22;19.89;70.49
65637;DHT22;52327;42.622;23.316;2023-06-22T04:40:48;19.93;70.68
65637;DHT22;52327;42.622;23.316;2023-06-22T04:43:14;20.02;70.28
65637;DHT22;52327;42.622;23.316;2023-06-22T04:45:39;20.09;70.55
65637;DHT22;52327;42.622;23.316;2023-06-22T04:48:05;20.14;69.87
65637;DHT22;52327;42.622;23.316;2023-06-22T04:50:31;20.22;70.69
65637;DHT22;52327;42.622;23.316;2023-06-22T04:52:56;20.34;69.83
65637;DHT22;52327;42.622;23.316;2023-06-22T04:55:21;20.33;69.46
65637;DHT22;52327;42.622;23.316;2023-06-22T04:57:47;20.29;69.65
65637;DHT22;52327;42.622;23.316;2023-06-22T05:00:17;20.30;68.58
65637;DHT22;52327;42.622;23.316;2023-06-22T05:02:46;20.41;68.98
65637;DHT22;52327;42.622;23.316;2023-06-22T05:05:12;20.44;68.94
65637;DHT22;52327;42.622;23.316;2023-06-22T05:07:45;20.58;68.89
65637;DHT22;52327;42.622;23.316;2023-06-22T05:10:11;20.77;67.47
65637;DHT22;52327;42.622;23.316;2023-06-22T05:12:38;20.90;67.14
65637;DHT22;52327;42.622;23.316;2023-06-22T05:15:04;20.95;66.51
65637;DHT22;52327;42.622;23.316;2023-06-22T05:17:30;20.98;66.74
65637;DHT22;52327;42.622;23.316;2023-06-22T05:19:56;21.02;66.44
65637;DHT22;52327;42.622;23.316;2023-06-22T05:22:21;21.08;66.67
65637;DHT22;52327;42.622;23.316;2023-06-22T05:24:46;21.14;66.98
65637;DHT22;52327;42.622;23.316;2023-06-22T05:27:13;21.19;67.34
65637;DHT22;52327;42.622;23.316;2023-06-22T05:29:39;21.18;67.48
65637;DHT22;52327;42.622;23.316;2023-06-22T05:32:05;21.28;66.83
65637;DHT22;52327;42.622;23.316;2023-06-22T05:34:30;21.36;66.73
65637;DHT22;52327;42.622;23.316;2023-06-22T05:36:56;21.45;66.71
65637;DHT22;52327;42.622;23.316;2023-06-22T05:39:24;21.53;67.23
65637;DHT22;52327;42.622;23.316;2023-06-22T05:41:50;21.69;67.14
65637;DHT22;52327;42.622;23.316;2023-06-22T05:44:15;21.72;66.91
65637;DHT22;52327;42.622;23.316;2023-06-22T05:46:42;21.76;66.62
65637;DHT22;52327;42.622;23.316;2023-06-22T05:49:14;21.41;67.02
65637;DHT22;52327;42.622;23.316;2023-06-22T05:51:41;21.41;67.43
65637;DHT22;52327;42.622;23.316;2023-06-22T05:54:07;21.50;66.33
65637;DHT22;52327;42.622;23.316;2023-06-22T05:56:34;21.69;65.91
65637;DHT22;52327;42.622;23.316;2023-06-22T05:58:59;21.66;66.18
65637;DHT22;52327;42.622;23.316;2023-06-22T06:01:25;21.84;65.94
65637;DHT22;52327;42.622;23.316;2023-06-22T06:03:51;21.90;65.34
65637;DHT22;52327;42.622;23.316;2023-06-22T06:06:18;22.04;64.79
65637;DHT22;52327;42.622;23.316;2023-06-22T06:08:48;22.11;63.67
65637;DHT22;52327;42.622;23.316;2023-06-22T06:11:14;22.11;64.89
65637;DHT22;52327;42.622;23.316;2023-06-22T06:13:39;22.18;64.93
65637;DHT22;52327;42.622;23.316;2023-06-22T06:16:05;22.31;64.44
65637;DHT22;52327;42.622;23.316;2023-06-22T06:18:30;22.48;64.27
65637;DHT22;52327;42.622;23.316;2023-06-22T06:20:56;22.48;63.79
65637;DHT22;52327;42.622;23.316;2023-06-22T06:23:21;22.37;65.24
65637;DHT22;52327;42.622;23.316;2023-06-22T06:25:47;22.59;64.61
65637;DHT22;52327;42.622;23.316;2023-06-22T06:28:12;22.85;63.52
65637;DHT22;52327;42.622;23.316;2023-06-22T06:30:38;23.03;63.06
65637;DHT22;52327;42.622;23.316;2023-06-22T06:33:03;23.27;62.75
65637;DHT22;52327;42.622;23.316;2023-06-22T06:35:34;23.58;61.76
65637;DHT22;52327;42.622;23.316;2023-06-22T06:37:59;23.68;61.10
65637;DHT22;52327;42.622;23.316;2023-06-22T06:40:26;23.84;60.54
65637;DHT22;52327;42.622;23.316;2023-06-22T06:42:51;23.84;60.92
65637;DHT22;52327;42.622;23.316;2023-06-22T06:45:21;23.94;60.98
65637;DHT22;52327;42.622;23.316;2023-06-22T06:47:51;24.08;60.74
65637;DHT22;52327;42.622;23.316;2023-06-22T06:50:21;24.40;60.22
65637;DHT22;52327;42.622;23.316;2023-06-22T06:52:48;24.66;59.28
65637;DHT22;52327;42.622;23.316;2023-06-22T06:55:15;25.02;58.69
65637;DHT22;52327;42.622;23.316;2023-06-22T06:57:42;25.23;57.90
65637;DHT22;52327;42.622;23.316;2023-06-22T07:00:09;25.51;57.55
65637;DHT22;52327;42.622;23.316;2023-06-22T07:02:43;25.71;56.81
65637;DHT22;52327;42.622;23.316;2023-06-22T07:05:10;25.95;56.38
65637;DHT22;52327;42.622;23.316;2023-06-22T07:07:36;26.01;55.58
65637;DHT22;52327;42.622;23.316;2023-06-22T07:10:02;25.84;56.67
65637;DHT22;52327;42.622;23.316;2023-06-22T07:12:28;26.02;57.06
65637;DHT22;52327;42.622;23.316;2023-06-22T07:14:53;26.28;55.35
65637;DHT22;52327;42.622;23.316;2023-06-22T07:17:19;26.37;54.46
65637;DHT22;52327;42.622;23.316;2023-06-22T07:19:45;26.29;54.90
65637;DHT22;52327;42.622;23.316;2023-06-22T07:22:11;26.19;55.89
65637;DHT22;52327;42.622;23.316;2023-06-22T07:24:37;25.86;55.53
65637;DHT22;52327;42.622;23.316;2023-06-22T07:27:03;25.77;55.78
65637;DHT22;52327;42.622;23.316;2023-06-22T07:29:29;25.55;55.09
65637;DHT22;52327;42.622;23.316;2023-06-22T07:31:54;25.55;55.92
65637;DHT22;52327;42.622;23.316;2023-06-22T07:34:21;25.42;56.51
65637;DHT22;52327;42.622;23.316;2023-06-22T07:36:47;25.60;55.98
65637;DHT22;52327;42.622;23.316;2023-06-22T07:39:13;25.65;54.38
65637;DHT22;52327;42.622;23.316;2023-06-22T07:41:39;25.45;53.39
65637;DHT22;52327;42.622;23.316;2023-06-22T07:44:08;24.86;54.06
65637;DHT22;52327;42.622;23.316;2023-06-22T07:46:33;24.72;55.11
65637;DHT22;52327;42.622;23.316;2023-06-22T07:48:58;24.58;56.64
65637;DHT22;52327;42.622;23.316;2023-06-22T07:51:25;24.91;57.74
65637;DHT22;52327;42.622;23.316;2023-06-22T07:53:50;24.70;57.53
65637;DHT22;52327;42.622;23.316;2023-06-22T07:56:16;25.23;58.21
65637;DHT22;52327;42.622;23.316;2023-06-22T07:58:45;25.47;56.17
65637;DHT22;52327;42.622;23.316;2023-06-22T08:01:11;25.78;55.70
65637;DHT22;52327;42.622;23.316;2023-06-22T08:03:37;25.86;54.75
65637;DHT22;52327;42.622;23.316;2023-06-22T08:06:03;25.80;54.34
65637;DHT22;52327;42.622;23.316;2023-06-22T08:08:28;26.32;54.68
65637;DHT22;52327;42.622;23.316;2023-06-22T08:10:54;26.43;53.12
65637;DHT22;52327;42.622;23.316;2023-06-22T08:13:19;26.71;53.59
65637;DHT22;52327;42.622;23.316;2023-06-22T08:15:45;26.42;54.07
65637;DHT22;52327;42.622;23.316;2023-06-22T08:18:10;26.65;53.49
65637;DHT22;52327;42.622;23.316;2023-06-22T08:20:36;26.44;54.35
65637;DHT22;52327;42.622;23.316;2023-06-22T08:23:01;25.93;56.12
65637;DHT22;52327;42.622;23.316;2023-06-22T08:25:31;26.05;54.31
65637;DHT22;52327;42.622;23.316;2023-06-22T08:27:58;26.28;55.25
65637;DHT22;52327;42.622;23.316;2023-06-22T08:30:23;26.28;54.70
65637;DHT22;52327;42.622;23.316;2023-06-22T08:32:49;26.25;52.90
65637;DHT22;52327;42.622;23.316;2023-06-22T08:35:14;26.30;54.06
65637;DHT22;52327;42.622;23.316;2023-06-22T08:37:40;26.18;53.01
65637;DHT22;52327;42.622;23.316;2023-06-22T08:40:08;26.11;53.04
65637;DHT22;52327;42.622;23.316;2023-06-22T08:42:35;26.46;52.48
65637;DHT22;52327;42.622;23.316;2023-06-22T08:45:00;26.23;53.83
65637;DHT22;52327;42.622;23.316;2023-06-22T08:47:27;25.92;54.04
65637;DHT22;52327;42.622;23.316;2023-06-22T08:49:52;26.01;53.97
65637;DHT22;52327;42.622;23.316;2023-06-22T08:52:18;25.68;54.98
65637;DHT22;52327;42.622;23.316;2023-06-22T08:54:45;25.82;54.16
65637;DHT22;52327;42.622;23.316;2023-06-22T08:57:11;26.09;55.43
65637;DHT22;52327;42.622;23.316;2023-06-22T08:59:36;26.26;56.16
65637;DHT22;52327;42.622;23.316;2023-06-22T09:02:01;26.36;54.42
65637;DHT22;52327;42.622;23.316;2023-06-22T09:04:27;26.50;54.28
65637;DHT22;52327;42.622;23.316;2023-06-22T09:06:52;26.73;53.69
65637;DHT22;52327;42.622;23.316;2023-06-22T09:09:18;26.77;55.20
65637;DHT22;52327;42.622;23.316;2023-06-22T09:11:44;26.84;53.14
65637;DHT22;52327;42.622;23.316;2023-06-22T09:14:10;26.95;53.76
65637;DHT22;52327;42.622;23.316;2023-06-22T09:16:36;26.90;51.62
65637;DHT22;52327;42.622;23.316;2023-06-22T09:19:02;26.98;50.87
65637;DHT22;52327;42.622;23.316;2023-06-22T09:21:27;27.08;52.02
65637;DHT22;52327;42.622;23.316;2023-06-22T09:23:53;27.18;52.00
65637;DHT22;52327;42.622;23.316;2023-06-22T09:26:18;27.03;53.46
65637;DHT22;52327;42.622;23.316;2023-06-22T09:28:45;26.84;51.03
65637;DHT22;52327;42.622;23.316;2023-06-22T09:31:10;26.93;50.61
65637;DHT22;52327;42.622;23.316;2023-06-22T09:33:36;26.86;50.05
65637;DHT22;52327;42.622;23.316;2023-06-22T09:36:04;27.01;50.96
65637;DHT22;52327;42.622;23.316;2023-06-22T09:38:37;27.14;51.19
65637;DHT22;52327;42.622;23.316;2023-06-22T09:41:03;27.14;49.89
65637;DHT22;52327;42.622;23.316;2023-06-22T09:43:47;27.24;48.97
65637;DHT22;52327;42.622;23.316;2023-06-22T09:56:18;27.62;49.76
65637;DHT22;52327;42.622;23.316;2023-06-22T09:59:13;27.90;48.06
65637;DHT22;52327;42.622;23.316;2023-06-22T10:02:15;27.65;46.34
65637;DHT22;52327;42.622;23.316;2023-06-22T10:04:53;27.63;44.80
65637;DHT22;52327;42.622;23.316;2023-06-22T10:07:26;27.67;45.56
65637;DHT22;52327;42.622;23.316;2023-06-22T10:13:43;27.12;45.56
65637;DHT22;52327;42.622;23.316;2023-06-22T10:16:14;27.32;46.77
65637;DHT22;52327;42.622;23.316;2023-06-22T10:18:39;27.49;45.38
65637;DHT22;52327;42.622;23.316;2023-06-22T10:21:08;27.59;45.10
65637;DHT22;52327;42.622;23.316;2023-06-22T10:23:40;27.83;43.55
65637;DHT22;52327;42.622;23.316;2023-06-22T10:27:01;28.03;43.10
65637;DHT22;52327;42.622;23.316;2023-06-22T10:29:18;28.02;42.93
65637;DHT22;52327;42.622;23.316;2023-06-22T10:31:47;28.18;43.73
65637;DHT22;52327;42.622;23.316;2023-06-22T10:34:39;28.54;42.92
65637;DHT22;52327;42.622;23.316;2023-06-22T10:40:51;29.11;43.05
65637;DHT22;52327;42.622;23.316;2023-06-22T10:53:53;29.33;39.71
65637;DHT22;52327;42.622;23.316;2023-06-22T11:00:31;29.16;42.03
65637;DHT22;52327;42.622;23.316;2023-06-22T11:06:41;29.52;42.26
65637;DHT22;52327;42.622;23.316;2023-06-22T11:09:34;29.72;42.27
65637;DHT22;52327;42.622;23.316;2023-06-22T11:12:08;29.87;42.26
65637;DHT22;52327;42.622;23.316;2023-06-22T11:14:45;30.29;41.49
65637;DHT22;52327;42.622;23.316;2023-06-22T11:17:48;30.68;40.51
65637;DHT22;52327;42.622;23.316;2023-06-22T11:20:26;30.57;38.41
65637;DHT22;52327;42.622;23.316;2023-06-22T11:22:56;30.25;39.14
65637;DHT22;52327;42.622;23.316;2023-06-22T11:29:08;30.47;39.19
65637;DHT22;52327;42.622;23.316;2023-06-22T11:31:34;30.85;36.65
65637;DHT22;52327;42.622;23.316;2023-06-22T11:34:00;31.30;36.66
65637;DHT22;52327;42.622;23.316;2023-06-22T11:36:26;32.08;35.44
65637;DHT22;52327;42.622;23.316;2023-06-22T11:38:51;32.93;34.32
65637;DHT22;52327;42.622;23.316;2023-06-22T11:41:17;33.10;33.91
65637;DHT22;52327;42.622;23.316;2023-06-22T11:43:58;32.69;33.68
65637;DHT22;52327;42.622;23.316;2023-06-22T11:46:23;32.36;35.49
65637;DHT22;52327;42.622;23.316;2023-06-22T11:48:52;32.29;35.34
65637;DHT22;52327;42.622;23.316;2023-06-22T11:51:21;32.24;35.97
65637;DHT22;52327;42.622;23.316;2023-06-22T11:53:46;32.27;35.88
65637;DHT22;52327;42.622;23.316;2023-06-22T11:56:15;32.33;35.61
65637;DHT22;52327;42.622;23.316;2023-06-22T12:06:00;31.90;36.86
65637;DHT22;52327;42.622;23.316;2023-06-22T12:08:25;30.79;37.19
65637;DHT22;52327;42.622;23.316;2023-06-22T12:10:51;30.93;38.94
65637;DHT22;52327;42.622;23.316;2023-06-22T12:13:17;30.92;37.92
65637;DHT22;52327;42.622;23.316;2023-06-22T12:15:42;31.22;39.07
65637;DHT22;52327;42.622;23.316;2023-06-22T12:18:08;31.13;39.44
65637;DHT22;52327;42.622;23.316;2023-06-22T12:20:34;30.39;41.39
65637;DHT22;52327;42.622;23.316;2023-06-22T12:22:59;29.36;43.83
65637;DHT22;52327;42.622;23.316;2023-06-22T12:25:25;28.75;46.11
65637;DHT22;52327;42.622;23.316;2023-06-22T12:27:50;28.17;48.51
65637;DHT22;52327;42.622;23.316;2023-06-22T12:30:16;28.05;47.90
65637;DHT22;52327;42.622;23.316;2023-06-22T12:32:42;27.58;50.49
65637;DHT22;52327;42.622;23.316;2023-06-22T12:35:07;27.31;53.07
65637;DHT22;52327;42.622;23.316;2023-06-22T12:37:41;27.61;51.50
65637;DHT22;52327;42.622;23.316;2023-06-22T12:40:08;27.42;51.48
65637;DHT22;52327;42.622;23.316;2023-06-22T12:42:34;27.41;53.12
65637;DHT22;52327;42.622;23.316;2023-06-22T12:44:59;27.28;62.94
65637;DHT22;52327;42.622;23.316;2023-06-22T12:47:24;26.26;65.82
65637;DHT22;52327;42.622;23.316;2023-06-22T12:49:50;25.78;69.47
65637;DHT22;52327;42.622;23.316;2023-06-22T12:52:15;25.64;69.06
65637;DHT22;52327;42.622;23.316;2023-06-22T12:54:41;25.42;71.11
65637;DHT22;52327;42.622;23.316;2023-06-22T12:57:06;25.71;66.31
65637;DHT22;52327;42.622;23.316;2023-06-22T12:59:32;25.61;65.66
65637;DHT22;52327;42.622;23.316;2023-06-22T13:01:57;25.34;64.04
65637;DHT22;52327;42.622;23.316;2023-06-22T13:04:23;26.67;60.75
65637;DHT22;52327;42.622;23.316;2023-06-22T13:06:48;26.47;59.03
65637;DHT22;52327;42.622;23.316;2023-06-22T13:09:18;26.37;58.57
65637;DHT22;52327;42.622;23.316;2023-06-22T13:11:44;26.18;58.52
65637;DHT22;52327;42.622;23.316;2023-06-22T13:14:09;25.96;60.75
65637;DHT22;52327;42.622;23.316;2023-06-22T13:16:35;25.34;64.27
65637;DHT22;52327;42.622;23.316;2023-06-22T13:19:00;24.84;65.77
65637;DHT22;52327;42.622;23.316;2023-06-22T13:21:26;24.75;66.83
65637;DHT22;52327;42.622;23.316;2023-06-22T13:23:52;24.90;66.45
65637;DHT22;52327;42.622;23.316;2023-06-22T13:26:17;25.06;65.66
65637;DHT22;52327;42.622;23.316;2023-06-22T13:28:43;25.11;65.48
65637;DHT22;52327;42.622;23.316;2023-06-22T13:31:09;25.02;66.69
65637;DHT22;52327;42.622;23.316;2023-06-22T13:33:34;24.89;67.63
65637;DHT22;52327;42.622;23.316;2023-06-22T13:36:00;24.76;68.27
65637;DHT22;52327;42.622;23.316;2023-06-22T13:38:25;24.65;68.20
65637;DHT22;52327;42.622;23.316;2023-06-22T13:40:51;24.42;69.08
65637;DHT22;52327;42.622;23.316;2023-06-22T13:43:17;24.29;69.40
65637;DHT22;52327;42.622;23.316;2023-06-22T13:45:42;24.49;68.82
65637;DHT22;52327;42.622;23.316;2023-06-22T13:48:08;24.51;69.62
65637;DHT22;52327;42.622;23.316;2023-06-22T13:50:34;24.48;70.61
65637;DHT22;52327;42.622;23.316;2023-06-22T13:52:59;24.36;70.42
65637;DHT22;52327;42.622;23.316;2023-06-22T13:55:25;24.43;70.41
65637;DHT22;52327;42.622;23.316;2023-06-22T13:57:51;24.31;71.12
65637;DHT22;52327;42.622;23.316;2023-06-22T14:00:17;24.17;71.11
65637;DHT22;52327;42.622;23.316;2023-06-22T14:02:43;24.18;70.33
65637;DHT22;52327;42.622;23.316;2023-06-22T14:05:09;24.08;70.32
65637;DHT22;52327;42.622;23.316;2023-06-22T14:07:34;24.14;70.25
65637;DHT22;52327;42.622;23.316;2023-06-22T14:10:00;24.22;70.04
65637;DHT22;52327;42.622;23.316;2023-06-22T14:12:26;24.17;70.08
65637;DHT22;52327;42.622;23.316;2023-06-22T14:14:52;24.24;69.29
65637;DHT22;52327;42.622;23.316;2023-06-22T14:17:17;24.21;68.83
65637;DHT22;52327;42.622;23.316;2023-06-22T14:19:43;24.12;69.39
65637;DHT22;52327;42.622;23.316;2023-06-22T14:22:08;24.04;69.32
65637;DHT22;52327;42.622;23.316;2023-06-22T14:24:34;23.91;69.38
65637;DHT22;52327;42.622;23.316;2023-06-22T14:26:59;24.00;69.00
65637;DHT22;52327;42.622;23.316;2023-06-22T14:29:27;23.74;71.11
65637;DHT22;52327;42.622;23.316;2023-06-22T14:31:53;23.46;70.52
65637;DHT22;52327;42.622;23.316;2023-06-22T14:34:21;23.13;72.16
65637;DHT22;52327;42.622;23.316;2023-06-22T14:36:47;23.19;72.64
65637;DHT22;52327;42.622;23.316;2023-06-22T14:39:12;23.31;73.11
65637;DHT22;52327;42.622;23.316;2023-06-22T14:41:37;23.45;73.05
65637;DHT22;52327;42.622;23.316;2023-06-22T14:44:03;23.67;72.22
65637;DHT22;52327;42.622;23.316;2023-06-22T14:46:28;23.46;72.06
65637;DHT22;52327;42.622;23.316;2023-06-22T14:48:57;23.05;72.64
65637;DHT22;52327;42.622;23.316;2023-06-22T14:51:23;22.68;74.56
65637;DHT22;52327;42.622;23.316;2023-06-22T14:53:48;22.98;73.40
65637;DHT22;52327;42.622;23.316;2023-06-22T14:56:14;23.42;72.43
65637;DHT22;52327;42.622;23.316;2023-06-22T14:58:41;23.73;71.55
65637;DHT22;52327;42.622;23.316;2023-06-22T15:01:10;24.09;70.44
65637;DHT22;52327;42.622;23.316;2023-06-22T15:03:36;23.54;69.80
65637;DHT22;52327;42.622;23.316;2023-06-22T15:06:03;23.82;69.73
65637;DHT22;52327;42.622;23.316;2023-06-22T15:08:28;23.67;70.21
65637;DHT22;52327;42.622;23.316;2023-06-22T15:10:54;23.88;69.97
65637;DHT22;52327;42.622;23.316;2023-06-22T15:13:21;24.28;68.90
65637;DHT22;52327;42.622;23.316;2023-06-22T15:15:48;24.47;69.35
65637;DHT22;52327;42.622;23.316;2023-06-22T15:18:14;23.74;69.21
65637;DHT22;52327;42.622;23.316;2023-06-22T15:20:41;23.97;69.09
65637;DHT22;52327;42.622;23.316;2023-06-22T15:23:10;24.55;68.14
65637;DHT22;52327;42.622;23.316;2023-06-22T15:25:35;25.10;66.60
65637;DHT22;52327;42.622;23.316;2023-06-22T15:28:01;25.42;66.53
65637;DHT22;52327;42.622;23.316;2023-06-22T15:30:26;25.89;64.97
65637;DHT22;52327;42.622;23.316;2023-06-22T15:32:52;25.71;65.93
65637;DHT22;52327;42.622;23.316;2023-06-22T15:35:17;25.82;65.49
65637;DHT22;52327;42.622;23.316;2023-06-22T15:37:44;26.06;64.64
65637;DHT22;52327;42.622;23.316;2023-06-22T15:40:11;26.29;63.71
65637;DHT22;52327;42.622;23.316;2023-06-22T15:42:36;26.37;62.19
65637;DHT22;52327;42.622;23.316;2023-06-22T15:45:02;26.60;62.71
65637;DHT22;52327;42.622;23.316;2023-06-22T15:47:28;26.73;58.78
65637;DHT22;52327;42.622;23.316;2023-06-22T15:49:53;26.84;59.28
65637;DHT22;52327;42.622;23.316;2023-06-22T15:52:18;26.71;57.47
65637;DHT22;52327;42.622;23.316;2023-06-22T15:54:47;26.54;57.02
65637;DHT22;52327;42.622;23.316;2023-06-22T15:57:13;26.46;57.99
65637;DHT22;52327;42.622;23.316;2023-06-22T15:59:39;25.93;57.34
65637;DHT22;52327;42.622;23.316;2023-06-22T16:02:06;25.65;59.40
65637;DHT22;52327;42.622;23.316;2023-06-22T16:04:31;25.52;60.22
65637;DHT22;52327;42.622;23.316;2023-06-22T16:06:57;25.17;62.12
65637;DHT22;52327;42.622;23.316;2023-06-22T16:09:22;24.77;64.13
65637;DHT22;52327;42.622;23.316;2023-06-22T16:11:48;24.75;64.87
65637;DHT22;52327;42.622;23.316;2023-06-22T16:14:13;24.58;65.56